Kissho — JD3124 — position and weather

sailwx.info

Track history (hours):
 
Tides and Currents Weather Stations Pressure Air Temp Water Temp Dewpoint Dewpoint Depression Visibility Wind Speed Wind Dir Waves Ship Positions

Kissho

Last reported at 2017-Mar-24 22:04 UTC. Time now 2017-Mar-27 20:27 UTC.
Position N 35°20' E 139°43'.

Length 30 m.

Type: Tug. MMSI: 431002115.

Date/timePositionNaut miles runAvg speedWind from/ knotsBaromVisibWave heightAir tempDewpointWater temp
2017-Mar-24 22:04N 35°20' E 139°43'4 0.2
2017-Mar-23 22:26N 35°23' E 139°47'232 5.1
2017-Mar-22 01:05N 34°29' E 135°11'4 8.0
2017-Mar-22 00:33N 34°31' E 135°15'8 7.6
2017-Mar-21 23:33N 34°37' E 135°21'6 2.7
2017-Mar-21 21:29N 34°40' E 135°27'0 0.0
2017-Mar-21 20:17N 34°40' E 135°27'0 0.0
2017-Mar-21 18:17N 34°40' E 135°27'0 0.0
2017-Mar-21 17:23N 34°40' E 135°27'0 0.0
2017-Mar-21 13:17N 34°40' E 135°27'0 0.0
2017-Mar-21 12:23N 34°40' E 135°27'  
2017-Mar-19 05:16N 34°39' E 135°26'5 6.5
2017-Mar-19 04:32N 34°41' E 135°20'1 1.3
2017-Mar-19 03:33N 34°39' E 135°20'9 8.4
2017-Mar-19 02:30N 34°34' E 135°11'  
Track history (hours):
 
Tides and Currents Weather Stations Pressure Air Temp Water Temp Dewpoint Dewpoint Depression Visibility Wind Speed Wind Dir Waves Ship Positions

Kissho

Last reported at 2017-Mar-24 22:04 UTC. Time now 2017-Mar-27 20:27 UTC.
Position N 35°20' E 139°43'.

Length 30 m.

Type: Tug. MMSI: 431002115.

Date/timePositionNaut miles runAvg speedWind from/ knotsBaromVisibWave heightAir tempDewpointWater temp
2017-Mar-24 22:04N 35°20' E 139°43'4 0.2
2017-Mar-23 22:26N 35°23' E 139°47'232 5.1
2017-Mar-22 01:05N 34°29' E 135°11'4 8.0
2017-Mar-22 00:33N 34°31' E 135°15'8 7.6
2017-Mar-21 23:33N 34°37' E 135°21'6 2.7
2017-Mar-21 21:29N 34°40' E 135°27'0 0.0
2017-Mar-21 20:17N 34°40' E 135°27'0 0.0
2017-Mar-21 18:17N 34°40' E 135°27'0 0.0
2017-Mar-21 17:23N 34°40' E 135°27'0 0.0
2017-Mar-21 13:17N 34°40' E 135°27'0 0.0
2017-Mar-21 12:23N 34°40' E 135°27'  
2017-Mar-19 05:16N 34°39' E 135°26'5 6.5
2017-Mar-19 04:32N 34°41' E 135°20'1 1.3
2017-Mar-19 03:33N 34°39' E 135°20'9 8.4
2017-Mar-19 02:30N 34°34' E 135°11'  

Dump ship's entire track history